createdAt,value
2023-05-20T00:01:16.080Z,50.60
2023-05-20T00:03:46.468Z,50.43
2023-05-20T00:06:14.767Z,50.46
2023-05-20T00:08:42.817Z,50.49
2023-05-20T00:11:11.434Z,50.40
2023-05-20T00:13:40.181Z,50.40
2023-05-20T00:16:08.434Z,50.30
2023-05-20T00:18:36.513Z,50.12
2023-05-20T00:21:06.079Z,50.18
2023-05-20T00:23:34.262Z,50.12
2023-05-20T00:26:02.271Z,50.10
2023-05-20T00:28:30.764Z,49.94
2023-05-20T00:30:58.829Z,49.82
2023-05-20T00:33:26.949Z,49.75
2023-05-20T00:35:55.095Z,49.86
2023-05-20T00:38:24.617Z,49.82
2023-05-20T00:40:52.716Z,49.94
2023-05-20T00:43:20.837Z,49.85
2023-05-20T00:45:49.174Z,50.02
2023-05-20T00:48:17.447Z,49.85
2023-05-20T00:50:45.814Z,49.83
2023-05-20T00:53:14.128Z,49.79
2023-05-20T00:55:43.734Z,49.72
2023-05-20T00:58:12.495Z,49.68
2023-05-20T01:00:40.727Z,49.56
2023-05-20T01:03:09.607Z,49.47
2023-05-20T01:05:39.846Z,49.43
2023-05-20T01:08:09.618Z,49.45
2023-05-20T01:10:43.229Z,49.34
2023-05-20T01:13:17.191Z,49.43
2023-05-20T01:15:48.452Z,49.60
2023-05-20T01:18:18.610Z,49.64
2023-05-20T01:20:51.021Z,49.64
2023-05-20T01:23:21.938Z,49.57
2023-05-20T01:25:50.003Z,49.63
2023-05-20T01:28:18.300Z,49.61
2023-05-20T01:30:53.034Z,49.42
2023-05-20T01:33:24.167Z,49.58
2023-05-20T01:35:52.691Z,49.56
2023-05-20T01:38:24.568Z,49.42
2023-05-20T01:40:53.846Z,49.58
2023-05-20T01:43:22.561Z,49.50
2023-05-20T01:45:50.818Z,49.47
2023-05-20T01:48:18.849Z,49.49
2023-05-20T01:50:46.894Z,49.52
2023-05-20T01:53:15.108Z,49.34
2023-05-20T01:55:44.599Z,49.18
2023-05-20T01:58:12.808Z,49.16
2023-05-20T02:00:41.041Z,49.08
2023-05-20T02:03:09.242Z,48.79
2023-05-20T02:05:37.698Z,48.52
2023-05-20T02:08:06.969Z,48.37
2023-05-20T02:10:35.080Z,48.19
2023-05-20T02:13:04.576Z,47.98
2023-05-20T02:15:33.771Z,47.88
2023-05-20T02:18:02.551Z,47.61
2023-05-20T02:20:31.040Z,47.34
2023-05-20T02:22:59.267Z,47.14
2023-05-20T02:25:27.451Z,46.89
2023-05-20T02:27:55.631Z,46.63
2023-05-20T02:30:25.062Z,46.45
2023-05-20T02:32:53.363Z,46.54
2023-05-20T02:35:21.450Z,46.42
2023-05-20T02:37:49.496Z,46.10
2023-05-20T02:40:18.058Z,46.11
2023-05-20T02:42:46.805Z,45.92
2023-05-20T02:45:14.903Z,45.73
2023-05-20T02:47:44.722Z,45.15
2023-05-20T02:50:12.903Z,45.23
2023-05-20T02:52:42.646Z,44.99
2023-05-20T02:55:11.409Z,44.75
2023-05-20T02:57:39.822Z,44.52
2023-05-20T03:00:12.033Z,44.32
2023-05-20T03:02:40.359Z,44.25
2023-05-20T03:05:11.067Z,44.09
2023-05-20T03:07:39.521Z,44.03
2023-05-20T03:10:09.406Z,44.05
2023-05-20T03:12:39.494Z,43.98
2023-05-20T03:15:09.236Z,43.67
2023-05-20T03:17:38.243Z,43.58
2023-05-20T03:20:08.458Z,43.56
2023-05-20T03:22:37.927Z,43.64
2023-05-20T03:25:06.993Z,43.49
2023-05-20T03:27:36.910Z,43.61
2023-05-20T03:30:05.994Z,43.68
2023-05-20T03:32:34.084Z,43.61
2023-05-20T03:35:02.295Z,43.71
2023-05-20T03:37:30.425Z,43.70
2023-05-20T03:39:59.956Z,43.75
2023-05-20T03:42:28.103Z,43.62
2023-05-20T03:44:56.339Z,43.67
2023-05-20T03:47:24.637Z,43.48
2023-05-20T03:49:52.880Z,43.51
2023-05-20T03:52:20.995Z,43.39
2023-05-20T03:54:49.129Z,43.40
2023-05-20T03:57:19.775Z,43.51
2023-05-20T03:59:48.103Z,43.26
2023-05-20T04:02:16.323Z,43.16
2023-05-20T04:04:45.633Z,43.14
2023-05-20T04:07:14.709Z,43.26
2023-05-20T04:09:43.747Z,43.03
2023-05-20T04:12:12.372Z,43.06
2023-05-20T04:14:42.281Z,43.43
2023-05-20T04:17:10.675Z,43.42
2023-05-20T04:19:39.307Z,43.43
2023-05-20T04:22:07.589Z,43.67
2023-05-20T04:24:35.826Z,43.67
2023-05-20T04:27:03.998Z,43.59
2023-05-20T04:29:34.364Z,43.45
2023-05-20T04:32:04.352Z,43.45
2023-05-20T04:34:35.251Z,43.55
2023-05-20T04:37:03.532Z,43.44
2023-05-20T04:39:31.625Z,43.56
2023-05-20T04:41:59.758Z,43.29
2023-05-20T04:44:29.908Z,43.29
2023-05-20T04:46:59.607Z,43.34
2023-05-20T04:49:29.937Z,43.22
2023-05-20T04:51:58.616Z,43.19
2023-05-20T04:54:26.687Z,43.10
2023-05-20T04:56:54.808Z,43.30
2023-05-20T04:59:22.809Z,43.48
2023-05-20T05:01:51.966Z,43.35
2023-05-20T05:04:20.134Z,43.42
2023-05-20T05:06:50.778Z,43.46
2023-05-20T05:09:18.838Z,43.44
2023-05-20T05:11:48.039Z,43.37
2023-05-20T05:14:16.251Z,43.47
2023-05-20T05:16:44.641Z,43.34
2023-05-20T05:19:13.723Z,43.32
2023-05-20T05:21:42.397Z,43.36
2023-05-20T05:24:11.989Z,42.67
2023-05-20T05:26:40.057Z,42.72
2023-05-20T05:29:09.789Z,42.87
2023-05-20T05:31:39.704Z,42.90
2023-05-20T05:34:07.784Z,42.78
2023-05-20T05:36:35.886Z,42.41
2023-05-20T05:39:04.822Z,42.71
2023-05-20T05:41:34.439Z,42.78
2023-05-20T05:44:03.409Z,42.39
2023-05-20T05:46:31.740Z,42.26
2023-05-20T05:48:59.861Z,42.36
2023-05-20T05:51:29.186Z,42.36
2023-05-20T05:53:58.435Z,42.12
2023-05-20T05:56:26.490Z,42.34
2023-05-20T05:58:55.976Z,42.13
2023-05-20T06:01:24.211Z,41.98
2023-05-20T06:03:52.276Z,42.06
2023-05-20T06:06:21.451Z,41.94
2023-05-20T06:08:50.014Z,42.25
2023-05-20T06:11:18.076Z,42.22
2023-05-20T06:13:46.156Z,41.84
2023-05-20T06:16:15.782Z,41.53
2023-05-20T06:18:44.152Z,41.12
2023-05-20T06:21:12.416Z,41.03
2023-05-20T06:23:41.087Z,41.68
2023-05-20T06:26:12.032Z,41.81
2023-05-20T06:28:40.476Z,41.90
2023-05-20T06:31:09.513Z,41.74
2023-05-20T06:33:39.707Z,41.47
2023-05-20T06:36:11.518Z,40.88
2023-05-20T06:38:39.644Z,41.24
2023-05-20T06:41:08.003Z,41.48
2023-05-20T06:43:36.043Z,41.16
2023-05-20T06:46:06.284Z,40.95
2023-05-20T06:48:39.228Z,40.65
2023-05-20T06:51:09.748Z,40.83
2023-05-20T06:53:38.360Z,40.47
2023-05-20T06:56:07.373Z,40.30
2023-05-20T06:58:35.433Z,40.32
2023-05-20T07:01:03.618Z,40.83
2023-05-20T07:03:32.095Z,40.57
2023-05-20T07:06:01.612Z,40.04
2023-05-20T07:08:30.128Z,40.04
2023-05-20T07:10:58.188Z,39.45
2023-05-20T07:13:26.507Z,39.91
2023-05-20T07:15:54.695Z,38.87
2023-05-20T07:18:22.833Z,38.09
2023-05-20T07:20:56.880Z,37.99
2023-05-20T07:24:02.096Z,36.11
2023-05-20T07:26:33.603Z,35.76
2023-05-20T07:29:01.985Z,35.50
2023-05-20T07:31:30.058Z,35.60
2023-05-20T07:33:58.289Z,35.30
2023-05-20T07:36:28.020Z,34.77
2023-05-20T07:39:04.240Z,34.93
2023-05-20T07:41:37.552Z,34.63
2023-05-20T07:44:08.749Z,33.71
2023-05-20T07:46:39.979Z,33.54
2023-05-20T07:49:08.932Z,33.63
2023-05-20T07:51:37.204Z,33.89
2023-05-20T07:54:06.421Z,33.95
2023-05-20T07:56:34.610Z,33.48
2023-05-20T07:59:04.405Z,32.78
2023-05-20T08:01:40.259Z,33.28
2023-05-20T08:04:08.472Z,33.65
2023-05-20T08:06:38.541Z,32.76
2023-05-20T08:09:08.078Z,32.01
2023-05-20T08:11:40.455Z,31.93
2023-05-20T08:14:10.235Z,32.93
2023-05-20T08:16:43.629Z,31.14
2023-05-20T08:19:11.870Z,31.30
2023-05-20T08:21:40.273Z,31.51
2023-05-20T08:24:08.322Z,31.39
2023-05-20T08:26:37.663Z,31.29
2023-05-20T08:29:06.454Z,31.22
2023-05-20T08:31:36.174Z,32.31
2023-05-20T08:34:04.602Z,30.93
2023-05-20T08:36:32.973Z,31.16
2023-05-20T08:39:01.083Z,30.20
2023-05-20T08:41:30.179Z,31.12
2023-05-20T08:44:02.118Z,29.36
2023-05-20T08:46:31.284Z,30.09
2023-05-20T08:49:01.924Z,30.67
2023-05-20T08:51:33.409Z,30.54
2023-05-20T08:54:01.573Z,30.70
2023-05-20T08:56:31.154Z,28.72
2023-05-20T08:58:59.350Z,28.70
2023-05-20T09:01:27.444Z,29.17
2023-05-20T09:03:55.579Z,29.88
2023-05-20T09:06:25.163Z,30.04
2023-05-20T09:08:53.240Z,30.27
2023-05-20T09:11:23.117Z,29.93
2023-05-20T09:13:51.741Z,28.61
2023-05-20T09:16:19.852Z,28.88
2023-05-20T09:18:48.116Z,28.50
2023-05-20T09:21:16.372Z,28.36
2023-05-20T09:23:50.546Z,30.29
2023-05-20T09:26:19.389Z,28.64
2023-05-20T09:28:47.854Z,28.48
2023-05-20T09:31:16.093Z,29.41
2023-05-20T09:33:45.146Z,26.43
2023-05-20T09:36:16.385Z,26.54
2023-05-20T09:38:47.563Z,26.52
2023-05-20T09:41:17.153Z,26.02
2023-05-20T09:43:46.269Z,25.10
2023-05-20T09:46:15.077Z,25.43
2023-05-20T09:48:43.980Z,25.47
2023-05-20T09:51:13.899Z,27.43
2023-05-20T09:53:43.098Z,25.84
2023-05-20T09:56:11.506Z,25.67
2023-05-20T09:58:43.137Z,25.03
2023-05-20T10:01:11.536Z,26.68
2023-05-20T10:03:41.954Z,25.04
2023-05-20T10:06:30.060Z,25.30
2023-05-20T10:09:17.120Z,24.11
2023-05-20T10:11:53.113Z,24.09
2023-05-20T10:14:41.890Z,23.95
2023-05-20T10:17:18.244Z,23.95
2023-05-20T10:19:46.512Z,24.69
2023-05-20T10:22:14.690Z,23.51
2023-05-20T10:24:44.360Z,24.08
2023-05-20T10:27:14.818Z,23.80
2023-05-20T10:29:45.482Z,24.91
2023-05-20T10:32:13.788Z,24.53
2023-05-20T10:34:51.803Z,25.23
2023-05-20T10:37:26.421Z,23.29
2023-05-20T10:40:04.141Z,23.88
2023-05-20T10:42:32.203Z,24.56
2023-05-20T10:45:01.716Z,24.59
2023-05-20T10:47:29.950Z,25.53
2023-05-20T10:49:58.225Z,25.55
2023-05-20T10:52:26.698Z,23.66
2023-05-20T10:54:59.560Z,25.24
2023-05-20T10:57:28.350Z,25.55
2023-05-20T10:59:57.102Z,25.59
2023-05-20T11:02:28.898Z,24.64
2023-05-20T11:04:58.233Z,25.04
2023-05-20T11:07:27.861Z,25.18
2023-05-20T11:09:56.071Z,26.05
2023-05-20T11:12:25.403Z,24.72
2023-05-20T11:14:53.598Z,24.72
2023-05-20T11:17:21.980Z,26.04
2023-05-20T11:19:52.123Z,22.48
2023-05-20T11:22:20.172Z,23.43
2023-05-20T11:24:48.399Z,23.08
2023-05-20T11:27:16.801Z,22.58
2023-05-20T11:29:45.034Z,20.97
2023-05-20T11:32:13.712Z,22.05
2023-05-20T11:34:42.673Z,21.98
2023-05-20T11:37:12.736Z,23.02
2023-05-20T11:39:40.965Z,22.39
2023-05-20T11:42:09.143Z,22.58
2023-05-20T11:44:37.470Z,21.95
2023-05-20T11:47:05.920Z,23.23
2023-05-20T11:49:41.118Z,23.40
2023-05-20T11:52:13.481Z,23.43
2023-05-20T11:54:41.552Z,22.60
2023-05-20T11:57:09.583Z,22.07
2023-05-20T11:59:37.723Z,23.66
2023-05-20T12:02:05.813Z,23.67
2023-05-20T12:04:34.020Z,22.22
2023-05-20T12:07:04.104Z,23.73
2023-05-20T12:09:33.607Z,22.97
2023-05-20T12:12:02.792Z,22.89
2023-05-20T12:14:30.870Z,23.38
2023-05-20T12:16:59.889Z,23.71
2023-05-20T12:19:28.107Z,24.11
2023-05-20T12:21:56.329Z,24.40
2023-05-20T12:24:24.352Z,23.06
2023-05-20T12:26:53.836Z,23.61
2023-05-20T12:29:21.854Z,24.07
2023-05-20T12:31:50.008Z,22.76
2023-05-20T12:34:18.119Z,22.85
2023-05-20T12:36:47.294Z,23.13
2023-05-20T12:39:17.738Z,23.97
2023-05-20T12:41:45.875Z,21.95
2023-05-20T12:44:15.319Z,21.78
2023-05-20T12:46:43.820Z,21.63
2023-05-20T12:49:11.975Z,21.12
2023-05-20T12:51:40.033Z,21.02
2023-05-20T12:54:08.081Z,19.88
2023-05-20T12:56:36.176Z,21.27
2023-05-20T12:59:04.245Z,20.14
2023-05-20T13:01:33.807Z,20.63
2023-05-20T13:04:01.982Z,19.68
2023-05-20T13:06:30.110Z,20.59
2023-05-20T13:08:58.224Z,21.94
2023-05-20T13:11:26.324Z,21.56
2023-05-20T13:13:56.626Z,22.11
2023-05-20T13:16:24.916Z,22.11
2023-05-20T13:18:54.451Z,22.85
2023-05-20T13:21:22.621Z,23.04
2023-05-20T13:23:50.699Z,23.17
2023-05-20T13:26:19.122Z,24.01
2023-05-20T13:28:47.329Z,24.38
2023-05-20T13:31:15.421Z,24.22
2023-05-20T13:33:43.542Z,22.36
2023-05-20T13:36:13.867Z,23.14
2023-05-20T13:38:41.968Z,23.02
2023-05-20T13:41:10.104Z,24.38
2023-05-20T13:43:39.209Z,24.61
2023-05-20T13:46:07.326Z,24.45
2023-05-20T13:48:35.414Z,24.72
2023-05-20T13:51:03.586Z,24.95
2023-05-20T13:53:33.038Z,24.55
2023-05-20T13:56:01.271Z,25.61
2023-05-20T13:58:29.350Z,26.56
2023-05-20T14:00:57.417Z,26.47
2023-05-20T14:03:27.490Z,24.77
2023-05-20T14:05:55.984Z,23.93
2023-05-20T14:08:24.213Z,24.06
2023-05-20T14:10:54.989Z,25.52
2023-05-20T14:13:23.540Z,26.14
2023-05-20T14:15:51.727Z,25.92
2023-05-20T14:18:20.604Z,26.49
2023-05-20T14:20:49.252Z,26.44
2023-05-20T14:23:17.350Z,26.86
2023-05-20T14:25:45.437Z,26.64
2023-05-20T14:28:14.881Z,26.98
2023-05-20T14:30:42.930Z,27.16
2023-05-20T14:33:11.145Z,27.58
2023-05-20T14:35:39.297Z,27.50
2023-05-20T14:38:07.347Z,27.40
2023-05-20T14:40:37.286Z,27.55
2023-05-20T14:43:05.622Z,27.78
2023-05-20T14:45:35.176Z,27.83
2023-05-20T14:48:03.273Z,27.18
2023-05-20T14:50:31.505Z,27.58
2023-05-20T14:52:59.544Z,27.75
2023-05-20T14:55:27.611Z,27.41
2023-05-20T14:57:55.697Z,27.77
2023-05-20T15:00:23.800Z,27.80
2023-05-20T15:02:53.386Z,28.59
2023-05-20T15:05:21.599Z,28.35
2023-05-20T15:07:51.031Z,28.79
2023-05-20T15:10:19.099Z,28.77
2023-05-20T15:12:47.327Z,28.87
2023-05-20T15:15:15.442Z,28.77
2023-05-20T15:17:43.778Z,29.13
2023-05-20T15:20:13.788Z,29.41
2023-05-20T15:22:44.219Z,29.69
2023-05-20T15:25:12.408Z,30.20
2023-05-20T15:27:41.859Z,29.93
2023-05-20T15:30:11.157Z,30.24
2023-05-20T15:32:39.989Z,31.10
2023-05-20T15:35:09.124Z,30.40
2023-05-20T15:37:38.558Z,30.87
2023-05-20T15:40:07.885Z,30.97
2023-05-20T15:42:35.932Z,30.61
2023-05-20T15:45:04.269Z,30.36
2023-05-20T15:47:32.334Z,30.39
2023-05-20T15:50:02.452Z,30.62
2023-05-20T15:52:30.781Z,30.72
2023-05-20T15:55:00.255Z,30.64
2023-05-20T15:57:29.310Z,30.66
2023-05-20T15:59:57.453Z,30.61
2023-05-20T16:02:25.773Z,30.55
2023-05-20T16:04:53.941Z,30.99
2023-05-20T16:07:22.001Z,30.74
2023-05-20T16:09:50.052Z,30.83
2023-05-20T16:12:19.509Z,30.58
2023-05-20T16:14:47.798Z,30.94
2023-05-20T16:17:16.810Z,30.48
2023-05-20T16:19:45.023Z,30.80
2023-05-20T16:22:13.506Z,31.03
2023-05-20T16:24:41.696Z,31.24
2023-05-20T16:27:09.783Z,31.15
2023-05-20T16:29:39.843Z,31.22
2023-05-20T16:32:11.052Z,31.50
2023-05-20T16:34:39.143Z,31.93
2023-05-20T16:37:07.208Z,32.54
2023-05-20T16:39:35.264Z,32.78
2023-05-20T16:42:03.782Z,32.39
2023-05-20T16:44:31.829Z,32.41
2023-05-20T16:47:01.273Z,32.77
2023-05-20T16:49:29.742Z,32.66
2023-05-20T16:51:58.590Z,32.36
2023-05-20T16:54:26.985Z,32.48
2023-05-20T16:56:55.054Z,32.65
2023-05-20T16:59:24.861Z,32.85
2023-05-20T17:01:52.941Z,32.79
2023-05-20T17:04:22.373Z,33.21
2023-05-20T17:06:51.289Z,32.98
2023-05-20T17:09:19.510Z,33.51
2023-05-20T17:11:47.631Z,33.54
2023-05-20T17:14:15.848Z,33.47
2023-05-20T17:16:44.009Z,33.70
2023-05-20T17:19:12.165Z,33.83
2023-05-20T17:21:41.703Z,33.71
2023-05-20T17:24:09.732Z,34.24
2023-05-20T17:26:37.792Z,34.27
2023-05-20T17:29:06.030Z,34.41
2023-05-20T17:31:34.108Z,34.92
2023-05-20T17:34:02.243Z,34.89
2023-05-20T17:36:31.486Z,34.87
2023-05-20T17:39:04.289Z,35.12
2023-05-20T17:41:32.418Z,34.98
2023-05-20T17:44:01.505Z,35.21
2023-05-20T17:46:29.609Z,35.32
2023-05-20T17:48:57.870Z,35.07
2023-05-20T17:51:25.912Z,34.91
2023-05-20T17:53:54.180Z,35.38
2023-05-20T17:56:23.967Z,35.56
2023-05-20T17:58:53.350Z,35.66
2023-05-20T18:01:23.492Z,35.86
2023-05-20T18:03:51.850Z,35.95
2023-05-20T18:06:20.061Z,36.18
2023-05-20T18:08:48.837Z,36.04
2023-05-20T18:11:16.889Z,36.21
2023-05-20T18:13:46.316Z,36.37
2023-05-20T18:16:14.450Z,36.54
2023-05-20T18:18:42.574Z,36.64
2023-05-20T18:21:10.722Z,36.77
2023-05-20T18:23:38.749Z,37.13
2023-05-20T18:26:09.179Z,37.27
2023-05-20T18:28:37.281Z,37.56
2023-05-20T18:31:06.827Z,37.39
2023-05-20T18:33:37.020Z,37.74
2023-05-20T18:36:06.821Z,38.03
2023-05-20T18:38:34.861Z,38.14
2023-05-20T18:41:03.017Z,38.47
2023-05-20T18:43:31.216Z,38.47
2023-05-20T18:45:59.401Z,38.52
2023-05-20T18:48:28.906Z,38.62
2023-05-20T18:50:58.694Z,38.74
2023-05-20T18:53:26.886Z,38.85
2023-05-20T18:55:56.050Z,38.97
2023-05-20T18:58:24.190Z,39.17
2023-05-20T19:00:52.309Z,39.44
2023-05-20T19:03:21.355Z,39.32
2023-05-20T19:05:51.040Z,39.49
2023-05-20T19:08:19.255Z,39.63
2023-05-20T19:10:47.355Z,39.93
2023-05-20T19:13:15.681Z,39.99
2023-05-20T19:15:44.007Z,39.88
2023-05-20T19:18:13.544Z,40.08
2023-05-20T19:20:41.578Z,39.98
2023-05-20T19:23:11.121Z,40.07
2023-05-20T19:25:39.214Z,40.33
2023-05-20T19:28:07.289Z,40.37
2023-05-20T19:30:35.542Z,40.52
2023-05-20T19:33:05.857Z,40.79
2023-05-20T19:35:34.908Z,40.93
2023-05-20T19:38:04.975Z,41.05
2023-05-20T19:40:34.548Z,41.03
2023-05-20T19:43:02.724Z,41.11
2023-05-20T19:45:33.631Z,41.16
2023-05-20T19:48:02.048Z,41.45
2023-05-20T19:50:30.437Z,41.45
2023-05-20T19:53:00.491Z,41.39
2023-05-20T19:55:28.673Z,41.28
2023-05-20T19:57:58.102Z,41.56
2023-05-20T20:00:26.354Z,41.71
2023-05-20T20:02:57.017Z,42.01
2023-05-20T20:05:30.681Z,42.23
2023-05-20T20:08:01.779Z,42.52
2023-05-20T20:10:30.980Z,42.72
2023-05-20T20:13:00.489Z,43.06
2023-05-20T20:15:30.476Z,43.32
2023-05-20T20:17:59.184Z,43.58
2023-05-20T20:20:27.802Z,43.61
2023-05-20T20:22:58.945Z,43.77
2023-05-20T20:25:29.868Z,43.93
2023-05-20T20:27:58.027Z,43.83
2023-05-20T20:30:27.782Z,43.87
2023-05-20T20:32:55.883Z,44.01
2023-05-20T20:35:24.399Z,44.36
2023-05-20T20:37:54.346Z,44.76
2023-05-20T20:40:22.628Z,45.04
2023-05-20T20:42:50.728Z,45.06
2023-05-20T20:45:22.683Z,45.16
2023-05-20T20:47:54.761Z,45.19
2023-05-20T20:50:23.026Z,45.32
2023-05-20T20:52:51.041Z,45.39
2023-05-20T20:55:19.478Z,45.26
2023-05-20T20:57:48.044Z,45.27
2023-05-20T21:00:19.008Z,45.30
2023-05-20T21:02:47.212Z,45.32
2023-05-20T21:05:17.628Z,45.45
2023-05-20T21:07:49.719Z,45.51
2023-05-20T21:10:17.970Z,45.65
2023-05-20T21:12:46.101Z,45.73
2023-05-20T21:15:15.081Z,45.64
2023-05-20T21:17:43.257Z,45.74
2023-05-20T21:20:12.680Z,45.71
2023-05-20T21:22:42.092Z,45.83
2023-05-20T21:25:10.873Z,45.83
2023-05-20T21:27:39.005Z,46.02
2023-05-20T21:30:08.295Z,46.13
2023-05-20T21:32:36.401Z,46.20
2023-05-20T21:35:04.869Z,46.25
2023-05-20T21:37:40.802Z,46.35
2023-05-20T21:40:11.220Z,46.32
2023-05-20T21:42:39.336Z,46.58
2023-05-20T21:45:08.974Z,46.70
2023-05-20T21:47:37.187Z,46.77
2023-05-20T21:50:06.188Z,46.77
2023-05-20T21:52:34.312Z,46.71
2023-05-20T21:55:02.427Z,46.67
2023-05-20T21:57:31.796Z,46.77
2023-05-20T21:59:59.884Z,46.82
2023-05-20T22:02:28.060Z,46.67
2023-05-20T22:04:57.744Z,46.70
2023-05-20T22:07:25.799Z,46.74
2023-05-20T22:09:53.887Z,46.86
2023-05-20T22:12:22.869Z,46.80
2023-05-20T22:14:52.364Z,46.69
2023-05-20T22:17:20.526Z,46.80
2023-05-20T22:19:49.909Z,46.67
2023-05-20T22:22:17.996Z,46.70
2023-05-20T22:24:46.050Z,46.60
2023-05-20T22:27:14.210Z,46.72
2023-05-20T22:29:42.258Z,46.72
2023-05-20T22:32:11.693Z,46.64
2023-05-20T22:34:40.149Z,46.67
2023-05-20T22:37:09.316Z,46.77
2023-05-20T22:39:37.637Z,46.89
2023-05-20T22:42:06.419Z,46.83
2023-05-20T22:44:34.703Z,46.93
2023-05-20T22:47:03.028Z,46.93
2023-05-20T22:49:32.795Z,46.96
2023-05-20T22:52:01.703Z,46.97
2023-05-20T22:54:29.974Z,46.93
2023-05-20T22:56:59.393Z,47.01
2023-05-20T22:59:31.169Z,46.99
2023-05-20T23:01:59.514Z,46.94
2023-05-20T23:04:27.867Z,46.97
2023-05-20T23:06:59.432Z,46.93
2023-05-20T23:09:28.112Z,47.05
2023-05-20T23:11:56.354Z,46.98
2023-05-20T23:14:24.694Z,47.11
2023-05-20T23:16:53.104Z,47.26
2023-05-20T23:19:21.471Z,47.41
2023-05-20T23:21:49.733Z,47.52
2023-05-20T23:24:19.457Z,47.57
2023-05-20T23:26:47.818Z,47.66
2023-05-20T23:29:16.352Z,47.76
2023-05-20T23:31:44.787Z,47.84
2023-05-20T23:34:13.162Z,47.89
2023-05-20T23:36:42.725Z,47.99
2023-05-20T23:39:11.010Z,48.02
2023-05-20T23:41:40.716Z,48.05
2023-05-20T23:44:09.045Z,48.02
2023-05-20T23:46:38.109Z,47.92
2023-05-20T23:49:06.850Z,47.89
2023-05-20T23:51:35.734Z,48.05
2023-05-20T23:54:04.074Z,48.26
2023-05-20T23:56:32.365Z,48.31
2023-05-20T23:59:02.118Z,48.34
